DGGSM EDDN-EDNY
Flight info
| Callsign | DGGSM |
|---|---|
| Flight time | 0h 49m |
| Altitude | 8000 |
| Route | BOLSI1G/28 BOLSI DCT ASPAT DCT UTABA DCT GARMO |
| Aircraft | DA42/L-SBDGRY/S |
Departure
| Time | 2026-04-23 19:26 |
|---|---|
| Airport | Nuremberg Airport (EDDN) |
Arrival
| Time | 2026-04-23 20:15 |
|---|---|
| Airport | Bodensee Airport Friedrichshafen (EDNY) |
| Time | Latitude | Longitude | Altitude | Speed | Heading |
|---|---|---|---|---|---|
| 2026-04-23 18:55 | 49.49413 | 11.07470 | 1020 ft | 0 kts | 279° |
| 2026-04-23 19:19 | 49.49417 | 11.07435 | 1021 ft | 7 kts | 284° |
| 2026-04-23 19:19 | 49.49464 | 11.07418 | 1021 ft | 10 kts | 330° |
| 2026-04-23 19:20 | 49.49532 | 11.07195 | 1020 ft | 11 kts | 10° |
| 2026-04-23 19:20 | 49.49624 | 11.07218 | 1020 ft | 14 kts | 26° |
| 2026-04-23 19:20 | 49.49624 | 11.07380 | 1020 ft | 19 kts | 98° |
| 2026-04-23 19:20 | 49.49604 | 11.07589 | 1020 ft | 21 kts | 98° |
| 2026-04-23 19:21 | 49.49582 | 11.07804 | 1021 ft | 20 kts | 99° |
| 2026-04-23 19:21 | 49.49538 | 11.08255 | 1023 ft | 17 kts | 107° |
| 2026-04-23 19:21 | 49.49593 | 11.08360 | 1027 ft | 13 kts | 30° |
| 2026-04-23 19:22 | 49.49657 | 11.08472 | 1029 ft | 16 kts | 53° |
| 2026-04-23 19:22 | 49.49700 | 11.08549 | 1030 ft | 0 kts | 344° |
| 2026-04-23 19:24 | 49.49707 | 11.08551 | 1030 ft | 5 kts | 21° |
| 2026-04-23 19:24 | 49.49797 | 11.08542 | 1032 ft | 6 kts | 279° |
| 2026-04-23 19:25 | 49.49862 | 11.07892 | 1023 ft | 77 kts | 280° |
| 2026-04-23 19:25 | 49.50014 | 11.06016 | 1420 ft | 94 kts | 281° |
| 2026-04-23 19:26 | 49.50242 | 11.03991 | 1957 ft | 98 kts | 281° |
| 2026-04-23 19:26 | 49.50304 | 11.02953 | 2236 ft | 95 kts | 283° |
| 2026-04-23 19:27 | 49.50464 | 11.00965 | 2852 ft | 92 kts | 286° |
| 2026-04-23 19:27 | 49.50789 | 10.98009 | 3824 ft | 94 kts | 286° |
| 2026-04-23 19:28 | 49.50998 | 10.96000 | 4587 ft | 96 kts | 285° |
| 2026-04-23 19:28 | 49.51206 | 10.93969 | 5255 ft | 98 kts | 285° |
| 2026-04-23 19:29 | 49.51259 | 10.92915 | 5625 ft | 102 kts | 273° |
| 2026-04-23 19:29 | 49.50309 | 10.91120 | 6208 ft | 122 kts | 219° |
| 2026-04-23 19:30 | 49.48839 | 10.89774 | 6861 ft | 124 kts | 216° |
| 2026-04-23 19:30 | 49.48096 | 10.89090 | 7161 ft | 124 kts | 216° |
| 2026-04-23 19:30 | 49.46605 | 10.87715 | 7783 ft | 127 kts | 216° |
| 2026-04-23 19:31 | 49.45847 | 10.87013 | 8132 ft | 127 kts | 216° |
| 2026-04-23 19:31 | 49.45056 | 10.86281 | 8250 ft | 145 kts | 216° |
| 2026-04-23 19:31 | 49.44125 | 10.85412 | 8262 ft | 167 kts | 214° |
| 2026-04-23 19:31 | 49.43085 | 10.84451 | 8263 ft | 182 kts | 214° |
| 2026-04-23 19:32 | 49.41974 | 10.83425 | 8270 ft | 189 kts | 214° |
| 2026-04-23 19:32 | 49.40831 | 10.82386 | 8270 ft | 192 kts | 214° |
| 2026-04-23 19:32 | 49.39681 | 10.81324 | 8268 ft | 194 kts | 214° |
| 2026-04-23 19:32 | 49.38538 | 10.80267 | 8265 ft | 195 kts | 214° |
| 2026-04-23 19:33 | 49.37378 | 10.79203 | 8272 ft | 194 kts | 213° |
| 2026-04-23 19:33 | 49.36226 | 10.78151 | 8259 ft | 192 kts | 214° |
| 2026-04-23 19:33 | 49.33925 | 10.76037 | 8256 ft | 193 kts | 214° |
| 2026-04-23 19:34 | 49.32782 | 10.74987 | 8255 ft | 191 kts | 214° |
| 2026-04-23 19:34 | 49.31648 | 10.73948 | 8265 ft | 190 kts | 214° |
| 2026-04-23 19:34 | 49.29368 | 10.71874 | 8251 ft | 189 kts | 212° |
| 2026-04-23 19:35 | 49.28244 | 10.70838 | 8262 ft | 188 kts | 214° |
| 2026-04-23 19:35 | 49.27126 | 10.69802 | 8256 ft | 186 kts | 213° |
| 2026-04-23 19:35 | 49.26026 | 10.68811 | 8249 ft | 185 kts | 213° |
| 2026-04-23 19:35 | 49.24931 | 10.67809 | 8262 ft | 183 kts | 214° |
| 2026-04-23 19:36 | 49.23837 | 10.66803 | 8262 ft | 182 kts | 214° |
| 2026-04-23 19:36 | 49.22738 | 10.65820 | 8267 ft | 184 kts | 213° |
| 2026-04-23 19:36 | 49.21652 | 10.64814 | 8251 ft | 181 kts | 214° |
| 2026-04-23 19:36 | 49.20571 | 10.63829 | 8264 ft | 182 kts | 214° |
| 2026-04-23 19:37 | 49.19485 | 10.62835 | 8262 ft | 182 kts | 213° |
| 2026-04-23 19:37 | 49.18394 | 10.61847 | 8264 ft | 183 kts | 214° |
| 2026-04-23 19:37 | 49.17303 | 10.60843 | 8262 ft | 183 kts | 213° |
| 2026-04-23 19:37 | 49.16215 | 10.59854 | 8268 ft | 182 kts | 214° |
| 2026-04-23 19:38 | 49.15127 | 10.58863 | 8264 ft | 181 kts | 213° |
| 2026-04-23 19:38 | 49.14062 | 10.57904 | 8268 ft | 179 kts | 213° |
| 2026-04-23 19:38 | 49.12978 | 10.56925 | 8269 ft | 181 kts | 214° |
| 2026-04-23 19:38 | 49.11904 | 10.55944 | 8267 ft | 179 kts | 214° |
| 2026-04-23 19:39 | 49.10834 | 10.54973 | 8277 ft | 179 kts | 213° |
| 2026-04-23 19:39 | 49.09762 | 10.54005 | 8277 ft | 179 kts | 212° |
| 2026-04-23 19:39 | 49.08685 | 10.53033 | 8280 ft | 181 kts | 214° |
| 2026-04-23 19:39 | 49.07604 | 10.52046 | 8282 ft | 181 kts | 213° |
| 2026-04-23 19:40 | 49.06886 | 10.51396 | 8284 ft | 181 kts | 213° |
| 2026-04-23 19:40 | 49.05814 | 10.50424 | 8290 ft | 180 kts | 213° |
| 2026-04-23 19:40 | 49.04742 | 10.49450 | 8300 ft | 179 kts | 213° |
| 2026-04-23 19:40 | 49.03672 | 10.48479 | 8295 ft | 179 kts | 213° |
| 2026-04-23 19:41 | 49.02250 | 10.47198 | 8309 ft | 181 kts | 213° |
| 2026-04-23 19:41 | 49.01162 | 10.46215 | 8299 ft | 181 kts | 213° |
| 2026-04-23 19:41 | 49.00432 | 10.45561 | 8304 ft | 179 kts | 213° |
| 2026-04-23 19:41 | 48.99375 | 10.44614 | 8296 ft | 178 kts | 213° |
| 2026-04-23 19:42 | 48.98315 | 10.43654 | 8308 ft | 177 kts | 212° |
| 2026-04-23 19:42 | 48.97258 | 10.42698 | 8314 ft | 177 kts | 213° |
| 2026-04-23 19:42 | 48.96197 | 10.41738 | 8317 ft | 177 kts | 213° |
| 2026-04-23 19:42 | 48.95131 | 10.40774 | 8305 ft | 178 kts | 213° |
| 2026-04-23 19:43 | 48.94070 | 10.39825 | 8308 ft | 177 kts | 214° |
| 2026-04-23 19:43 | 48.93007 | 10.38869 | 8311 ft | 179 kts | 213° |
| 2026-04-23 19:43 | 48.91933 | 10.37905 | 8301 ft | 179 kts | 213° |
| 2026-04-23 19:43 | 48.90879 | 10.36955 | 8304 ft | 179 kts | 213° |
| 2026-04-23 19:44 | 48.89804 | 10.35994 | 8313 ft | 180 kts | 213° |
| 2026-04-23 19:44 | 48.88727 | 10.35026 | 8308 ft | 179 kts | 213° |
| 2026-04-23 19:44 | 48.87651 | 10.34059 | 8302 ft | 180 kts | 213° |
| 2026-04-23 19:44 | 48.86577 | 10.33095 | 8303 ft | 179 kts | 212° |
| 2026-04-23 19:45 | 48.85499 | 10.32128 | 8299 ft | 179 kts | 213° |
| 2026-04-23 19:45 | 48.84430 | 10.31170 | 8299 ft | 177 kts | 213° |
| 2026-04-23 19:45 | 48.83371 | 10.30219 | 8310 ft | 177 kts | 213° |
| 2026-04-23 19:45 | 48.82321 | 10.29281 | 8305 ft | 178 kts | 213° |
| 2026-04-23 19:46 | 48.81254 | 10.28323 | 8308 ft | 178 kts | 213° |
| 2026-04-23 19:46 | 48.80170 | 10.27356 | 8305 ft | 183 kts | 212° |
| 2026-04-23 19:46 | 48.79066 | 10.26369 | 8296 ft | 184 kts | 213° |
| 2026-04-23 19:46 | 48.77972 | 10.25394 | 8302 ft | 182 kts | 213° |
| 2026-04-23 19:47 | 48.76880 | 10.24419 | 8293 ft | 182 kts | 212° |
| 2026-04-23 19:47 | 48.75805 | 10.23459 | 8299 ft | 179 kts | 213° |
| 2026-04-23 19:47 | 48.74724 | 10.22492 | 8305 ft | 181 kts | 213° |
| 2026-04-23 19:47 | 48.73642 | 10.21532 | 8294 ft | 181 kts | 212° |
| 2026-04-23 19:48 | 48.72584 | 10.20586 | 8300 ft | 178 kts | 212° |
| 2026-04-23 19:48 | 48.71522 | 10.19640 | 8295 ft | 177 kts | 212° |
| 2026-04-23 19:48 | 48.70462 | 10.18699 | 8291 ft | 176 kts | 212° |
| 2026-04-23 19:48 | 48.69398 | 10.17742 | 8304 ft | 180 kts | 212° |
| 2026-04-23 19:49 | 48.68316 | 10.16783 | 8293 ft | 179 kts | 212° |
| 2026-04-23 19:49 | 48.67234 | 10.15825 | 8299 ft | 182 kts | 212° |
| 2026-04-23 19:49 | 48.66138 | 10.14855 | 8281 ft | 182 kts | 212° |
| 2026-04-23 19:49 | 48.65055 | 10.13891 | 8289 ft | 179 kts | 212° |
| 2026-04-23 19:50 | 48.63991 | 10.12945 | 8283 ft | 176 kts | 212° |
| 2026-04-23 19:50 | 48.62932 | 10.12014 | 8281 ft | 179 kts | 212° |
| 2026-04-23 19:50 | 48.61872 | 10.11067 | 8291 ft | 176 kts | 212° |
| 2026-04-23 19:50 | 48.60818 | 10.10132 | 8294 ft | 178 kts | 212° |
| 2026-04-23 19:51 | 48.59739 | 10.09178 | 8293 ft | 181 kts | 212° |
| 2026-04-23 19:51 | 48.58649 | 10.08209 | 8298 ft | 182 kts | 211° |
| 2026-04-23 19:51 | 48.57557 | 10.07250 | 8290 ft | 181 kts | 212° |
| 2026-04-23 19:51 | 48.56468 | 10.06288 | 8283 ft | 181 kts | 212° |
| 2026-04-23 19:52 | 48.55398 | 10.05333 | 8282 ft | 178 kts | 212° |
| 2026-04-23 19:52 | 48.54329 | 10.04382 | 8274 ft | 179 kts | 212° |
| 2026-04-23 19:52 | 48.53264 | 10.03446 | 8282 ft | 176 kts | 212° |
| 2026-04-23 19:52 | 48.52208 | 10.02517 | 8286 ft | 178 kts | 211° |
| 2026-04-23 19:53 | 48.51138 | 10.01577 | 8284 ft | 178 kts | 212° |
| 2026-04-23 19:53 | 48.50075 | 10.00637 | 8273 ft | 177 kts | 212° |
| 2026-04-23 19:53 | 48.49016 | 9.99704 | 8287 ft | 176 kts | 212° |
| 2026-04-23 19:53 | 48.47945 | 9.98755 | 8282 ft | 180 kts | 212° |
| 2026-04-23 19:54 | 48.46875 | 9.97824 | 8274 ft | 180 kts | 211° |
| 2026-04-23 19:54 | 48.45803 | 9.96876 | 8278 ft | 178 kts | 212° |
| 2026-04-23 19:54 | 48.44739 | 9.95937 | 8283 ft | 176 kts | 212° |
| 2026-04-23 19:54 | 48.43672 | 9.94994 | 8269 ft | 178 kts | 212° |
| 2026-04-23 19:55 | 48.42614 | 9.94049 | 8270 ft | 177 kts | 211° |
| 2026-04-23 19:55 | 48.41905 | 9.93436 | 8281 ft | 179 kts | 212° |
| 2026-04-23 19:55 | 48.41446 | 9.93042 | 8278 ft | 180 kts | 211° |
| 2026-04-23 19:55 | 48.40368 | 9.92099 | 8273 ft | 178 kts | 211° |
| 2026-04-23 19:56 | 48.39318 | 9.91183 | 8276 ft | 176 kts | 212° |
| 2026-04-23 19:56 | 48.38258 | 9.90244 | 8267 ft | 178 kts | 212° |
| 2026-04-23 19:56 | 48.37182 | 9.89305 | 8270 ft | 179 kts | 211° |
| 2026-04-23 19:56 | 48.36109 | 9.88362 | 8273 ft | 179 kts | 212° |
| 2026-04-23 19:57 | 48.35029 | 9.87416 | 8266 ft | 180 kts | 211° |
| 2026-04-23 19:57 | 48.33946 | 9.86473 | 8266 ft | 179 kts | 211° |
| 2026-04-23 19:57 | 48.32878 | 9.85540 | 8277 ft | 178 kts | 211° |
| 2026-04-23 19:57 | 48.31810 | 9.84599 | 8262 ft | 178 kts | 211° |
| 2026-04-23 19:58 | 48.30730 | 9.83654 | 8273 ft | 181 kts | 212° |
| 2026-04-23 19:58 | 48.29666 | 9.82725 | 8261 ft | 177 kts | 211° |
| 2026-04-23 19:58 | 48.28606 | 9.81801 | 8264 ft | 175 kts | 211° |
| 2026-04-23 19:58 | 48.27556 | 9.80890 | 8263 ft | 174 kts | 211° |
| 2026-04-23 19:59 | 48.26499 | 9.79962 | 8276 ft | 178 kts | 211° |
| 2026-04-23 19:59 | 48.25425 | 9.79029 | 8260 ft | 177 kts | 211° |
| 2026-04-23 19:59 | 48.24370 | 9.78105 | 8270 ft | 176 kts | 211° |
| 2026-04-23 19:59 | 48.23303 | 9.77180 | 8274 ft | 178 kts | 211° |
| 2026-04-23 20:00 | 48.22238 | 9.76243 | 8253 ft | 177 kts | 211° |
| 2026-04-23 20:00 | 48.21178 | 9.75323 | 8270 ft | 176 kts | 211° |
| 2026-04-23 20:00 | 48.20126 | 9.74408 | 8265 ft | 176 kts | 211° |
| 2026-04-23 20:00 | 48.19074 | 9.73497 | 8263 ft | 174 kts | 211° |
| 2026-04-23 20:01 | 48.18028 | 9.72589 | 8265 ft | 175 kts | 211° |
| 2026-04-23 20:01 | 48.16968 | 9.71654 | 8276 ft | 178 kts | 212° |
| 2026-04-23 20:01 | 48.15899 | 9.70733 | 8269 ft | 176 kts | 208° |
| 2026-04-23 20:01 | 48.14829 | 9.69820 | 8268 ft | 177 kts | 210° |
| 2026-04-23 20:02 | 48.13772 | 9.68901 | 8286 ft | 177 kts | 210° |
| 2026-04-23 20:02 | 48.12701 | 9.67955 | 8094 ft | 179 kts | 211° |
| 2026-04-23 20:02 | 48.11643 | 9.67044 | 7926 ft | 176 kts | 211° |
| 2026-04-23 20:02 | 48.10591 | 9.66133 | 7758 ft | 173 kts | 211° |
| 2026-04-23 20:03 | 48.09541 | 9.65227 | 7591 ft | 176 kts | 210° |
| 2026-04-23 20:03 | 48.08481 | 9.64311 | 7419 ft | 177 kts | 211° |
| 2026-04-23 20:03 | 48.07412 | 9.63381 | 7241 ft | 178 kts | 210° |
| 2026-04-23 20:03 | 48.06359 | 9.62471 | 7059 ft | 176 kts | 211° |
| 2026-04-23 20:04 | 48.05309 | 9.61563 | 6895 ft | 174 kts | 211° |
| 2026-04-23 20:04 | 48.04271 | 9.60663 | 6791 ft | 169 kts | 209° |
| 2026-04-23 20:04 | 48.03267 | 9.59801 | 6773 ft | 165 kts | 211° |
| 2026-04-23 20:04 | 48.02276 | 9.59033 | 6769 ft | 161 kts | 204° |
| 2026-04-23 20:05 | 48.01257 | 9.58367 | 6651 ft | 160 kts | 204° |
| 2026-04-23 20:05 | 48.00218 | 9.57683 | 6521 ft | 163 kts | 202° |
| 2026-04-23 20:05 | 47.99177 | 9.56996 | 6383 ft | 162 kts | 204° |
| 2026-04-23 20:05 | 47.98141 | 9.56322 | 6253 ft | 162 kts | 203° |
| 2026-04-23 20:06 | 47.97116 | 9.55653 | 6120 ft | 159 kts | 203° |
| 2026-04-23 20:06 | 47.96092 | 9.54987 | 6018 ft | 165 kts | 204° |
| 2026-04-23 20:06 | 47.95034 | 9.54281 | 5881 ft | 165 kts | 204° |
| 2026-04-23 20:06 | 47.94008 | 9.53614 | 5761 ft | 162 kts | 204° |
| 2026-04-23 20:07 | 47.92967 | 9.52967 | 5620 ft | 162 kts | 198° |
| 2026-04-23 20:07 | 47.91883 | 9.52480 | 5496 ft | 162 kts | 195° |
| 2026-04-23 20:07 | 47.90809 | 9.52025 | 5368 ft | 159 kts | 190° |
| 2026-04-23 20:07 | 47.89725 | 9.51756 | 5267 ft | 160 kts | 187° |
| 2026-04-23 20:08 | 47.88621 | 9.51507 | 5127 ft | 159 kts | 187° |
| 2026-04-23 20:08 | 47.87530 | 9.51229 | 5007 ft | 162 kts | 189° |
| 2026-04-23 20:08 | 47.86432 | 9.50967 | 4902 ft | 160 kts | 189° |
| 2026-04-23 20:08 | 47.85345 | 9.50732 | 4788 ft | 157 kts | 186° |
| 2026-04-23 20:09 | 47.84256 | 9.50717 | 4665 ft | 158 kts | 174° |
| 2026-04-23 20:09 | 47.83148 | 9.50815 | 4386 ft | 165 kts | 174° |
| 2026-04-23 20:09 | 47.82028 | 9.51034 | 4243 ft | 157 kts | 169° |
| 2026-04-23 20:09 | 47.80931 | 9.51255 | 3905 ft | 166 kts | 170° |
| 2026-04-23 20:10 | 47.79820 | 9.51453 | 3566 ft | 153 kts | 170° |
| 2026-04-23 20:10 | 47.78831 | 9.51616 | 3572 ft | 136 kts | 170° |
| 2026-04-23 20:10 | 47.77930 | 9.51778 | 3595 ft | 126 kts | 166° |
| 2026-04-23 20:10 | 47.77150 | 9.52075 | 3705 ft | 113 kts | 157° |
| 2026-04-23 20:11 | 47.76363 | 9.52412 | 3812 ft | 122 kts | 157° |
| 2026-04-23 20:11 | 47.75551 | 9.52858 | 3575 ft | 115 kts | 152° |
| 2026-04-23 20:11 | 47.74882 | 9.53415 | 3247 ft | 111 kts | 135° |
| 2026-04-23 20:11 | 47.74424 | 9.54210 | 3043 ft | 100 kts | 112° |
| 2026-04-23 20:12 | 47.74154 | 9.55133 | 2597 ft | 99 kts | 112° |
| 2026-04-23 20:12 | 47.73681 | 9.55845 | 2410 ft | 98 kts | 145° |
| 2026-04-23 20:12 | 47.73063 | 9.56237 | 2455 ft | 95 kts | 162° |
| 2026-04-23 20:12 | 47.72414 | 9.56361 | 2552 ft | 94 kts | 173° |
| 2026-04-23 20:13 | 47.71743 | 9.56300 | 2486 ft | 96 kts | 188° |
| 2026-04-23 20:13 | 47.71087 | 9.56196 | 2445 ft | 96 kts | 184° |
| 2026-04-23 20:13 | 47.70401 | 9.56015 | 2381 ft | 105 kts | 193° |
| 2026-04-23 20:13 | 47.69680 | 9.55695 | 2187 ft | 109 kts | 195° |
| 2026-04-23 20:14 | 47.68995 | 9.55349 | 1973 ft | 103 kts | 206° |
| 2026-04-23 20:14 | 47.68491 | 9.54651 | 1775 ft | 98 kts | 237° |
| 2026-04-23 20:14 | 47.68170 | 9.53804 | 1621 ft | 92 kts | 240° |
| 2026-04-23 20:14 | 47.67850 | 9.52990 | 1510 ft | 93 kts | 239° |
| 2026-04-23 20:15 | 47.67525 | 9.52157 | 1370 ft | 87 kts | 242° |
| 2026-04-23 20:15 | 47.67294 | 9.51562 | 1356 ft | 52 kts | 240° |
| 2026-04-23 20:15 | 47.67178 | 9.51261 | 1356 ft | 20 kts | 241° |
| 2026-04-23 20:15 | 47.67178 | 9.51177 | 1355 ft | 10 kts | 324° |
| 2026-04-23 20:16 | 47.67251 | 9.51090 | 1354 ft | 18 kts | 321° |
| 2026-04-23 20:16 | 47.67362 | 9.50966 | 1353 ft | 20 kts | 328° |
| 2026-04-23 20:16 | 47.67467 | 9.50875 | 1349 ft | 12 kts | 354° |
| 2026-04-23 20:16 | 47.67501 | 9.50916 | 1350 ft | 2 kts | 118° |
| 2026-04-23 20:17 | 47.67499 | 9.50918 | 1350 ft | 0 kts | 149° |